createdAt,value
2023-11-30T04:22:19.538Z,-0.67
2023-11-30T04:25:23.583Z,-0.67
2023-11-30T04:28:25.949Z,-0.94
2023-11-30T04:31:28.618Z,-0.64
2023-11-30T04:34:30.946Z,-0.51
2023-11-30T04:37:33.493Z,-0.45
2023-11-30T04:40:35.702Z,-0.34
2023-11-30T04:43:38.529Z,-0.51
2023-11-30T04:46:40.828Z,-0.27
2023-11-30T04:49:43.960Z,-0.49
2023-11-30T04:52:46.574Z,-0.13
2023-11-30T04:55:49.280Z,-0.04
2023-11-30T04:58:51.609Z,-0.14
2023-11-30T05:01:54.262Z,-0.21
2023-11-30T05:04:56.572Z,0.12
2023-11-30T05:07:59.107Z,0.17
2023-11-30T05:11:01.426Z,0.17
2023-11-30T05:14:04.002Z,0.09
2023-11-30T05:17:06.200Z,0.17
2023-11-30T05:20:09.317Z,-0.13
2023-11-30T05:23:11.501Z,0.05
2023-11-30T05:26:13.911Z,-0.07
2023-11-30T05:29:16.297Z,0.06
2023-11-30T05:32:18.828Z,-0.18
2023-11-30T05:35:21.017Z,-0.35
2023-11-30T05:38:23.494Z,-0.41
2023-11-30T05:41:25.734Z,-0.37
2023-11-30T05:44:28.205Z,-0.55
2023-11-30T05:47:30.501Z,-0.65
2023-11-30T05:50:33.552Z,-0.61
2023-11-30T05:53:36.941Z,-0.24
2023-11-30T05:56:39.449Z,0.04
2023-11-30T05:59:42.823Z,0.32
2023-11-30T06:02:45.304Z,-0.06
2023-11-30T06:05:47.975Z,0.10
2023-11-30T06:08:50.408Z,0.36
2023-11-30T06:11:53.552Z,0.28
2023-11-30T06:14:55.883Z,0.20
2023-11-30T06:17:58.482Z,0.36
2023-11-30T06:21:00.929Z,0.65
2023-11-30T06:24:03.714Z,0.72
2023-11-30T06:27:08.154Z,0.78
2023-11-30T06:30:11.673Z,0.82
2023-11-30T06:33:14.467Z,0.90
2023-11-30T06:36:17.367Z,0.73
2023-11-30T06:39:19.583Z,0.86
2023-11-30T06:42:22.049Z,0.99
2023-11-30T06:45:24.286Z,0.94
2023-11-30T06:48:27.178Z,0.78
2023-11-30T06:51:29.506Z,0.93
2023-11-30T06:54:32.139Z,1.10
2023-11-30T06:57:35.190Z,0.89
2023-11-30T07:00:38.078Z,1.14
2023-11-30T07:03:43.039Z,1.19
2023-11-30T07:06:46.238Z,1.22
2023-11-30T07:09:48.473Z,1.08
2023-11-30T07:12:51.052Z,1.26
2023-11-30T07:15:53.446Z,1.42
2023-11-30T07:18:56.219Z,1.23
2023-11-30T07:21:58.785Z,1.14
2023-11-30T07:25:02.159Z,1.07
2023-11-30T07:28:05.056Z,1.18
2023-11-30T07:31:11.599Z,0.87
2023-11-30T07:34:14.156Z,0.84
2023-11-30T07:37:22.651Z,0.88
2023-11-30T07:40:24.824Z,0.90
2023-11-30T07:43:28.240Z,0.94
2023-11-30T07:46:30.518Z,0.62
2023-11-30T07:49:33.261Z,0.81
2023-11-30T07:52:38.495Z,0.82
2023-11-30T07:55:40.975Z,0.68
2023-11-30T07:58:45.087Z,0.86
2023-11-30T08:01:47.755Z,0.62
2023-11-30T08:04:50.342Z,0.65
2023-11-30T08:07:53.528Z,0.72
2023-11-30T08:10:57.153Z,0.59
2023-11-30T08:14:00.695Z,0.68
2023-11-30T08:17:05.847Z,0.82
2023-11-30T08:20:14.985Z,0.91
2023-11-30T08:23:18.304Z,0.93
2023-11-30T08:26:21.032Z,0.81
2023-11-30T08:29:23.637Z,0.81
2023-11-30T08:32:25.951Z,0.86
2023-11-30T08:35:28.845Z,0.60
2023-11-30T08:38:35.136Z,0.58
2023-11-30T08:41:37.578Z,0.63
2023-11-30T08:44:39.863Z,0.70
2023-11-30T08:47:44.280Z,0.63
2023-11-30T08:50:46.683Z,0.35
2023-11-30T08:53:49.182Z,0.54
2023-11-30T08:56:51.509Z,0.46
2023-11-30T08:59:54.285Z,0.61
2023-11-30T09:02:57.635Z,0.54
2023-11-30T09:06:00.141Z,0.73
2023-11-30T09:09:02.753Z,0.68
2023-11-30T09:12:05.607Z,0.92
2023-11-30T09:15:10.312Z,0.95
2023-11-30T09:18:13.127Z,1.12
2023-11-30T09:21:15.603Z,1.02
2023-11-30T09:24:22.890Z,0.96
2023-11-30T09:27:25.319Z,0.54
2023-11-30T09:30:30.118Z,0.53
2023-11-30T09:33:32.376Z,0.75
2023-11-30T09:36:34.885Z,0.61
2023-11-30T09:39:37.516Z,0.60
2023-11-30T09:42:40.220Z,0.49
2023-11-30T09:45:43.257Z,0.78
2023-11-30T09:48:45.878Z,0.98
2023-11-30T09:51:54.939Z,1.25
2023-11-30T09:54:57.657Z,1.24
2023-11-30T09:58:00.220Z,1.28
2023-11-30T10:01:02.822Z,1.07
2023-11-30T10:04:19.091Z,1.15
2023-11-30T10:07:22.123Z,1.23
2023-11-30T10:10:25.988Z,1.49
2023-11-30T10:13:28.187Z,1.40
2023-11-30T10:16:30.736Z,1.34
2023-11-30T10:19:33.758Z,1.30
2023-11-30T10:22:36.395Z,1.43
2023-11-30T10:25:40.016Z,1.34
2023-11-30T10:28:43.916Z,1.40
2023-11-30T10:31:50.769Z,1.44
2023-11-30T10:34:55.894Z,1.59
2023-11-30T10:37:58.836Z,1.45
2023-11-30T10:41:08.075Z,1.24
2023-11-30T10:44:14.345Z,1.49
2023-11-30T10:47:17.701Z,1.51
2023-11-30T10:50:20.778Z,1.50
2023-11-30T10:53:48.999Z,1.59
2023-11-30T10:56:51.718Z,1.64
2023-11-30T11:00:00.964Z,1.56
2023-11-30T11:03:09.860Z,1.60
2023-11-30T11:06:12.538Z,1.63
2023-11-30T11:09:16.828Z,1.67
2023-11-30T11:12:24.263Z,1.73
2023-11-30T11:15:29.655Z,1.59
2023-11-30T11:18:34.058Z,1.77
2023-11-30T11:21:37.941Z,1.72
2023-11-30T11:24:41.462Z,1.70
2023-11-30T11:27:46.554Z,1.74
2023-11-30T11:30:50.956Z,1.74
2023-11-30T11:33:53.974Z,1.69
2023-11-30T11:36:56.466Z,1.67
2023-11-30T11:39:59.124Z,1.79
2023-11-30T11:43:01.574Z,1.63
2023-11-30T11:46:03.975Z,1.45
2023-11-30T11:49:06.710Z,1.47
2023-11-30T11:52:10.160Z,1.56
2023-11-30T11:55:14.625Z,1.63
2023-11-30T11:58:16.800Z,1.68
2023-11-30T12:01:19.246Z,1.71
2023-11-30T12:04:28.689Z,1.80
2023-11-30T12:07:30.993Z,1.59
2023-11-30T12:10:42.506Z,1.58
2023-11-30T12:13:44.791Z,1.62
2023-11-30T12:16:48.234Z,1.61
2023-11-30T12:19:50.508Z,1.54
2023-11-30T12:22:53.205Z,1.48
2023-11-30T12:25:56.599Z,1.37
2023-11-30T12:28:59.711Z,1.29
2023-11-30T12:32:02.225Z,1.34
2023-11-30T12:35:05.949Z,1.38
2023-11-30T12:38:08.372Z,1.44
2023-11-30T12:41:11.025Z,1.55
2023-11-30T12:44:13.347Z,1.69
2023-11-30T12:47:16.231Z,1.62
2023-11-30T12:50:18.823Z,1.56
2023-11-30T12:53:21.752Z,1.54
2023-11-30T12:56:24.642Z,1.33
2023-11-30T12:59:27.301Z,1.39
2023-11-30T13:02:29.742Z,1.44
2023-11-30T13:05:32.574Z,1.48
2023-11-30T13:08:35.134Z,1.46
2023-11-30T13:11:37.842Z,1.36
2023-11-30T13:14:40.186Z,1.19
2023-11-30T13:17:43.041Z,1.19
2023-11-30T13:20:45.382Z,1.23
2023-11-30T13:23:48.094Z,1.33
2023-11-30T13:26:50.305Z,1.39
2023-11-30T13:29:52.924Z,1.24
2023-11-30T13:32:56.939Z,1.28
2023-11-30T13:36:00.316Z,1.03
2023-11-30T13:39:05.379Z,1.15
2023-11-30T13:42:08.363Z,1.06
2023-11-30T13:45:11.065Z,0.84
2023-11-30T13:48:15.650Z,0.86
2023-11-30T13:51:17.927Z,1.01
2023-11-30T13:54:20.474Z,0.83
2023-11-30T13:57:22.929Z,0.68
2023-11-30T14:00:25.677Z,0.65
2023-11-30T14:03:29.028Z,0.78
2023-11-30T14:06:31.354Z,0.67
2023-11-30T14:09:33.896Z,0.85
2023-11-30T14:12:37.045Z,0.78
2023-11-30T14:15:39.969Z,0.67
2023-11-30T14:18:42.587Z,0.73
2023-11-30T14:21:45.305Z,0.73
2023-11-30T14:24:47.628Z,0.58
2023-11-30T14:27:50.238Z,0.67
2023-11-30T14:30:52.839Z,0.54
2023-11-30T14:33:56.723Z,0.57
2023-11-30T14:36:59.177Z,0.67
2023-11-30T14:40:02.692Z,0.86
2023-11-30T14:43:05.920Z,0.95
2023-11-30T14:46:08.606Z,0.84
2023-11-30T14:49:11.021Z,0.96
2023-11-30T14:52:14.004Z,1.08
2023-11-30T14:55:16.201Z,0.89
2023-11-30T14:58:20.950Z,0.67
2023-11-30T15:01:23.277Z,0.98
2023-11-30T15:04:25.891Z,1.13
2023-11-30T15:07:29.643Z,0.92
2023-11-30T15:10:33.009Z,0.89
2023-11-30T15:13:35.234Z,0.94
2023-11-30T15:16:39.220Z,1.03
2023-11-30T15:19:41.525Z,1.13
2023-11-30T15:22:45.021Z,1.17
2023-11-30T15:25:47.331Z,1.15
2023-11-30T15:28:49.886Z,0.95
2023-11-30T15:31:52.464Z,1.04
2023-11-30T15:34:55.215Z,0.96
2023-11-30T15:37:59.901Z,0.98
2023-11-30T15:41:04.226Z,0.86
2023-11-30T15:44:06.378Z,0.81
2023-11-30T15:47:08.952Z,0.74
2023-11-30T15:50:14.373Z,0.55
2023-11-30T15:53:17.532Z,0.47
2023-11-30T15:56:20.063Z,0.57
2023-11-30T15:59:22.523Z,0.84
2023-11-30T16:02:24.807Z,0.83
2023-11-30T16:05:29.465Z,0.73
2023-11-30T16:08:32.470Z,0.65
2023-11-30T16:11:34.884Z,0.62
2023-11-30T16:14:37.046Z,0.60
2023-11-30T16:17:39.708Z,0.38
2023-11-30T16:20:41.962Z,0.44
2023-11-30T16:23:45.702Z,0.42
2023-11-30T16:26:47.918Z,0.38
2023-11-30T16:29:50.403Z,0.60
2023-11-30T16:32:52.628Z,0.69
2023-11-30T16:35:55.059Z,0.84
